Big River, Canada
Current Conditions -  °F | °C
As of 3:00 PM on Monday 20 Oct 2014 (Local Time) from CYPA Reporting Station
Few Clouds Few Clouds  
Wind Chill: 64°   Ceiling: Unl
Heat Index: 64°   Visibility: 15mi
Dew Point: 43°   Wind: 10mph
Humidity: 45%   Direction: 170°S
Pressure: 29.66"   Gusts: 17mph
Location:  53.83°N, 107.03°W
Report Text: CYPA 202100Z 17009G15KT 15SM FEW250 18/06 A2966 RMK CI2 SLP054 DENSITY ALT 2400FT
Loading
Personal Weather Stations






























Interactive Weather Map
Tropical Storm Tracking
New forecast layout! Learn more

10-Day Weather Forecast

Advertisements
Track Severe Weather on mobile